sensor_id;sensor_type;location;lat;lon;timestamp;temperature;humidity
1381;DHT22;684;48.342;10.096;2023-10-19T00:01:47;10.00;33.00
1381;DHT22;684;48.342;10.096;2023-10-19T00:04:13;10.00;33.10
1381;DHT22;684;48.342;10.096;2023-10-19T00:06:40;10.00;33.30
1381;DHT22;684;48.342;10.096;2023-10-19T00:09:05;10.00;33.20
1381;DHT22;684;48.342;10.096;2023-10-19T00:11:36;10.00;33.40
1381;DHT22;684;48.342;10.096;2023-10-19T00:14:07;10.00;33.30
1381;DHT22;684;48.342;10.096;2023-10-19T00:16:41;10.00;33.50
1381;DHT22;684;48.342;10.096;2023-10-19T00:19:10;10.00;33.50
1381;DHT22;684;48.342;10.096;2023-10-19T00:21:36;10.00;33.50
1381;DHT22;684;48.342;10.096;2023-10-19T00:24:16;10.00;33.50
1381;DHT22;684;48.342;10.096;2023-10-19T00:26:44;10.00;33.40
1381;DHT22;684;48.342;10.096;2023-10-19T00:29:12;10.00;33.50
1381;DHT22;684;48.342;10.096;2023-10-19T00:31:56;10.00;33.50
1381;DHT22;684;48.342;10.096;2023-10-19T00:34:22;10.00;33.40
1381;DHT22;684;48.342;10.096;2023-10-19T00:36:49;10.00;33.50
1381;DHT22;684;48.342;10.096;2023-10-19T00:39:17;10.10;33.70
1381;DHT22;684;48.342;10.096;2023-10-19T00:41:47;10.00;33.30
1381;DHT22;684;48.342;10.096;2023-10-19T00:44:15;10.10;33.40
1381;DHT22;684;48.342;10.096;2023-10-19T00:46:47;10.10;33.40
1381;DHT22;684;48.342;10.096;2023-10-19T00:49:21;10.10;33.40
1381;DHT22;684;48.342;10.096;2023-10-19T00:51:52;10.10;33.50
1381;DHT22;684;48.342;10.096;2023-10-19T00:54:24;10.10;33.70
1381;DHT22;684;48.342;10.096;2023-10-19T00:56:57;10.10;33.70
1381;DHT22;684;48.342;10.096;2023-10-19T00:59:30;10.10;33.80
1381;DHT22;684;48.342;10.096;2023-10-19T01:02:01;10.10;33.80
1381;DHT22;684;48.342;10.096;2023-10-19T01:04:42;10.10;33.70
1381;DHT22;684;48.342;10.096;2023-10-19T01:07:10;10.10;33.90
1381;DHT22;684;48.342;10.096;2023-10-19T01:09:41;10.10;33.80
1381;DHT22;684;48.342;10.096;2023-10-19T01:12:09;10.10;33.90
1381;DHT22;684;48.342;10.096;2023-10-19T01:15:06;10.10;33.90
1381;DHT22;684;48.342;10.096;2023-10-19T01:17:35;10.00;34.30
1381;DHT22;684;48.342;10.096;2023-10-19T01:20:07;10.10;33.80
1381;DHT22;684;48.342;10.096;2023-10-19T01:22:51;10.10;33.80
1381;DHT22;684;48.342;10.096;2023-10-19T01:25:30;10.00;33.90
1381;DHT22;684;48.342;10.096;2023-10-19T01:28:01;10.00;33.70
1381;DHT22;684;48.342;10.096;2023-10-19T01:30:32;10.00;33.80
1381;DHT22;684;48.342;10.096;2023-10-19T01:33:00;10.00;33.70
1381;DHT22;684;48.342;10.096;2023-10-19T01:35:27;10.10;33.50
1381;DHT22;684;48.342;10.096;2023-10-19T01:38:16;10.10;33.50
1381;DHT22;684;48.342;10.096;2023-10-19T01:40:41;10.10;33.50
1381;DHT22;684;48.342;10.096;2023-10-19T01:43:11;10.10;33.40
1381;DHT22;684;48.342;10.096;2023-10-19T01:45:45;10.10;33.30
1381;DHT22;684;48.342;10.096;2023-10-19T01:48:12;10.10;33.60
1381;DHT22;684;48.342;10.096;2023-10-19T01:50:38;10.10;33.30
1381;DHT22;684;48.342;10.096;2023-10-19T01:53:05;10.10;33.50
1381;DHT22;684;48.342;10.096;2023-10-19T01:55:39;10.10;33.50
1381;DHT22;684;48.342;10.096;2023-10-19T01:58:06;10.00;33.50
1381;DHT22;684;48.342;10.096;2023-10-19T02:00:34;10.00;33.40
1381;DHT22;684;48.342;10.096;2023-10-19T02:03:06;10.00;33.70
1381;DHT22;684;48.342;10.096;2023-10-19T02:05:32;10.00;33.80
1381;DHT22;684;48.342;10.096;2023-10-19T02:08:05;10.00;33.80
1381;DHT22;684;48.342;10.096;2023-10-19T02:10:33;10.00;33.90
1381;DHT22;684;48.342;10.096;2023-10-19T02:13:01;10.00;33.70
1381;DHT22;684;48.342;10.096;2023-10-19T02:15:32;10.00;33.80
1381;DHT22;684;48.342;10.096;2023-10-19T02:18:01;10.00;33.60
1381;DHT22;684;48.342;10.096;2023-10-19T02:20:27;10.00;33.60
1381;DHT22;684;48.342;10.096;2023-10-19T02:22:54;10.00;33.60
1381;DHT22;684;48.342;10.096;2023-10-19T02:25:23;10.00;33.60
1381;DHT22;684;48.342;10.096;2023-10-19T02:27:53;10.00;33.60
1381;DHT22;684;48.342;10.096;2023-10-19T02:30:20;10.00;33.70
1381;DHT22;684;48.342;10.096;2023-10-19T02:32:50;10.00;33.80
1381;DHT22;684;48.342;10.096;2023-10-19T02:35:16;10.00;33.80
1381;DHT22;684;48.342;10.096;2023-10-19T02:37:44;10.00;33.70
1381;DHT22;684;48.342;10.096;2023-10-19T02:40:11;10.10;33.60
1381;DHT22;684;48.342;10.096;2023-10-19T02:42:45;10.10;33.20
1381;DHT22;684;48.342;10.096;2023-10-19T02:45:13;10.10;33.40
1381;DHT22;684;48.342;10.096;2023-10-19T02:47:44;10.10;33.40
1381;DHT22;684;48.342;10.096;2023-10-19T02:50:11;10.10;33.50
1381;DHT22;684;48.342;10.096;2023-10-19T02:52:39;10.10;33.40
1381;DHT22;684;48.342;10.096;2023-10-19T02:55:07;10.10;33.50
1381;DHT22;684;48.342;10.096;2023-10-19T02:57:34;10.10;33.70
1381;DHT22;684;48.342;10.096;2023-10-19T03:00:00;10.10;33.70
1381;DHT22;684;48.342;10.096;2023-10-19T03:02:33;10.10;33.80
1381;DHT22;684;48.342;10.096;2023-10-19T03:05:03;10.10;33.60
1381;DHT22;684;48.342;10.096;2023-10-19T03:07:38;10.10;33.60
1381;DHT22;684;48.342;10.096;2023-10-19T03:10:05;10.00;33.90
1381;DHT22;684;48.342;10.096;2023-10-19T03:12:32;10.00;34.00
1381;DHT22;684;48.342;10.096;2023-10-19T03:14:58;9.90;34.10
1381;DHT22;684;48.342;10.096;2023-10-19T03:17:26;9.90;34.10
1381;DHT22;684;48.342;10.096;2023-10-19T03:19:54;9.90;33.90
1381;DHT22;684;48.342;10.096;2023-10-19T03:22:22;9.80;34.00
1381;DHT22;684;48.342;10.096;2023-10-19T03:24:48;9.80;34.00
1381;DHT22;684;48.342;10.096;2023-10-19T03:27:24;9.80;33.90
1381;DHT22;684;48.342;10.096;2023-10-19T03:29:52;9.80;33.90
1381;DHT22;684;48.342;10.096;2023-10-19T03:32:20;9.70;34.00
1381;DHT22;684;48.342;10.096;2023-10-19T03:34:51;9.70;33.90
1381;DHT22;684;48.342;10.096;2023-10-19T03:37:22;9.60;33.80
1381;DHT22;684;48.342;10.096;2023-10-19T03:39:50;9.60;33.80
1381;DHT22;684;48.342;10.096;2023-10-19T03:42:21;9.60;33.80
1381;DHT22;684;48.342;10.096;2023-10-19T03:44:51;9.60;33.90
1381;DHT22;684;48.342;10.096;2023-10-19T03:47:19;9.50;33.80
1381;DHT22;684;48.342;10.096;2023-10-19T03:49:46;9.50;33.90
1381;DHT22;684;48.342;10.096;2023-10-19T03:52:14;9.50;33.90
1381;DHT22;684;48.342;10.096;2023-10-19T03:54:48;9.50;33.90
1381;DHT22;684;48.342;10.096;2023-10-19T03:57:17;9.50;34.00
1381;DHT22;684;48.342;10.096;2023-10-19T03:59:48;9.40;34.00
1381;DHT22;684;48.342;10.096;2023-10-19T04:02:17;9.40;34.00
1381;DHT22;684;48.342;10.096;2023-10-19T04:04:46;9.40;34.20
1381;DHT22;684;48.342;10.096;2023-10-19T04:07:14;9.40;34.30
1381;DHT22;684;48.342;10.096;2023-10-19T04:09:48;9.40;34.20
1381;DHT22;684;48.342;10.096;2023-10-19T04:12:25;9.40;34.20
1381;DHT22;684;48.342;10.096;2023-10-19T04:14:54;9.50;34.40
1381;DHT22;684;48.342;10.096;2023-10-19T04:17:21;9.50;34.40
1381;DHT22;684;48.342;10.096;2023-10-19T04:19:49;9.50;34.30
1381;DHT22;684;48.342;10.096;2023-10-19T04:22:17;9.60;34.20
1381;DHT22;684;48.342;10.096;2023-10-19T04:24:50;9.60;34.50
1381;DHT22;684;48.342;10.096;2023-10-19T04:27:17;9.60;34.70
1381;DHT22;684;48.342;10.096;2023-10-19T04:29:47;9.70;34.50
1381;DHT22;684;48.342;10.096;2023-10-19T04:32:15;9.70;34.70
1381;DHT22;684;48.342;10.096;2023-10-19T04:34:48;9.80;34.50
1381;DHT22;684;48.342;10.096;2023-10-19T04:37:15;9.80;34.50
1381;DHT22;684;48.342;10.096;2023-10-19T04:39:44;9.70;34.60
1381;DHT22;684;48.342;10.096;2023-10-19T04:42:12;9.80;34.30
1381;DHT22;684;48.342;10.096;2023-10-19T04:44:39;9.80;34.30
1381;DHT22;684;48.342;10.096;2023-10-19T04:47:06;9.80;34.60
1381;DHT22;684;48.342;10.096;2023-10-19T04:49:33;9.80;34.60
1381;DHT22;684;48.342;10.096;2023-10-19T04:52:00;9.80;34.40
1381;DHT22;684;48.342;10.096;2023-10-19T04:54:28;9.90;34.30
1381;DHT22;684;48.342;10.096;2023-10-19T04:56:55;9.90;34.40
1381;DHT22;684;48.342;10.096;2023-10-19T04:59:23;10.00;34.40
1381;DHT22;684;48.342;10.096;2023-10-19T05:01:50;10.00;34.50
1381;DHT22;684;48.342;10.096;2023-10-19T05:04:17;10.00;34.70
1381;DHT22;684;48.342;10.096;2023-10-19T05:06:44;10.00;34.90
1381;DHT22;684;48.342;10.096;2023-10-19T05:09:10;10.00;35.00
1381;DHT22;684;48.342;10.096;2023-10-19T05:11:37;10.00;35.00
1381;DHT22;684;48.342;10.096;2023-10-19T05:14:05;10.00;35.00
1381;DHT22;684;48.342;10.096;2023-10-19T05:16:33;10.10;35.10
1381;DHT22;684;48.342;10.096;2023-10-19T05:19:00;10.10;35.10
1381;DHT22;684;48.342;10.096;2023-10-19T05:21:26;10.10;35.10
1381;DHT22;684;48.342;10.096;2023-10-19T05:23:55;10.20;35.20
1381;DHT22;684;48.342;10.096;2023-10-19T05:26:22;10.10;35.10
1381;DHT22;684;48.342;10.096;2023-10-19T05:28:49;10.20;35.20
1381;DHT22;684;48.342;10.096;2023-10-19T05:31:16;10.20;35.10
1381;DHT22;684;48.342;10.096;2023-10-19T05:33:44;10.20;35.20
1381;DHT22;684;48.342;10.096;2023-10-19T05:36:13;10.20;35.20
1381;DHT22;684;48.342;10.096;2023-10-19T05:38:40;10.20;35.20
1381;DHT22;684;48.342;10.096;2023-10-19T05:41:07;10.20;35.40
1381;DHT22;684;48.342;10.096;2023-10-19T05:43:34;10.20;35.40
1381;DHT22;684;48.342;10.096;2023-10-19T05:46:01;10.20;35.50
1381;DHT22;684;48.342;10.096;2023-10-19T05:48:27;10.20;35.40
1381;DHT22;684;48.342;10.096;2023-10-19T05:50:55;10.30;35.60
1381;DHT22;684;48.342;10.096;2023-10-19T05:53:22;10.30;35.50
1381;DHT22;684;48.342;10.096;2023-10-19T05:55:49;10.30;35.50
1381;DHT22;684;48.342;10.096;2023-10-19T05:58:16;10.30;35.50
1381;DHT22;684;48.342;10.096;2023-10-19T06:00:42;10.30;35.50
1381;DHT22;684;48.342;10.096;2023-10-19T06:03:09;10.40;35.30
1381;DHT22;684;48.342;10.096;2023-10-19T06:05:36;10.40;35.50
1381;DHT22;684;48.342;10.096;2023-10-19T06:08:04;10.40;35.30
1381;DHT22;684;48.342;10.096;2023-10-19T06:10:31;10.40;35.20
1381;DHT22;684;48.342;10.096;2023-10-19T06:12:58;10.50;35.10
1381;DHT22;684;48.342;10.096;2023-10-19T06:15:25;10.50;35.00
1381;DHT22;684;48.342;10.096;2023-10-19T06:17:54;10.60;35.00
1381;DHT22;684;48.342;10.096;2023-10-19T06:20:21;10.60;34.70
1381;DHT22;684;48.342;10.096;2023-10-19T06:22:50;10.60;34.80
1381;DHT22;684;48.342;10.096;2023-10-19T06:25:19;10.70;34.90
1381;DHT22;684;48.342;10.096;2023-10-19T06:27:47;10.70;35.50
1381;DHT22;684;48.342;10.096;2023-10-19T06:30:14;10.80;34.90
1381;DHT22;684;48.342;10.096;2023-10-19T06:32:46;10.80;34.70
1381;DHT22;684;48.342;10.096;2023-10-19T06:35:13;10.80;34.60
1381;DHT22;684;48.342;10.096;2023-10-19T06:37:40;10.90;34.60
1381;DHT22;684;48.342;10.096;2023-10-19T06:40:08;10.90;34.50
1381;DHT22;684;48.342;10.096;2023-10-19T06:42:38;11.00;33.80
1381;DHT22;684;48.342;10.096;2023-10-19T06:45:06;11.10;33.90
1381;DHT22;684;48.342;10.096;2023-10-19T06:47:33;11.10;33.70
1381;DHT22;684;48.342;10.096;2023-10-19T06:50:04;11.20;33.80
1381;DHT22;684;48.342;10.096;2023-10-19T06:52:33;11.20;33.70
1381;DHT22;684;48.342;10.096;2023-10-19T06:55:01;11.30;34.20
1381;DHT22;684;48.342;10.096;2023-10-19T06:57:28;11.40;33.50
1381;DHT22;684;48.342;10.096;2023-10-19T06:59:56;11.40;33.30
1381;DHT22;684;48.342;10.096;2023-10-19T07:02:23;11.40;33.20
1381;DHT22;684;48.342;10.096;2023-10-19T07:04:50;11.50;33.10
1381;DHT22;684;48.342;10.096;2023-10-19T07:07:17;11.50;32.90
1381;DHT22;684;48.342;10.096;2023-10-19T07:09:44;11.60;32.90
1381;DHT22;684;48.342;10.096;2023-10-19T07:12:11;11.70;32.60
1381;DHT22;684;48.342;10.096;2023-10-19T07:14:37;11.80;32.50
1381;DHT22;684;48.342;10.096;2023-10-19T07:17:07;11.90;32.50
1381;DHT22;684;48.342;10.096;2023-10-19T07:19:34;12.10;32.30
1381;DHT22;684;48.342;10.096;2023-10-19T07:22:02;12.20;32.20
1381;DHT22;684;48.342;10.096;2023-10-19T07:26:03;12.30;31.00
1381;DHT22;684;48.342;10.096;2023-10-19T07:28:31;12.40;31.80
1381;DHT22;684;48.342;10.096;2023-10-19T07:30:58;12.40;31.80
1381;DHT22;684;48.342;10.096;2023-10-19T07:33:25;12.40;31.80
1381;DHT22;684;48.342;10.096;2023-10-19T07:35:53;12.40;31.90
1381;DHT22;684;48.342;10.096;2023-10-19T07:38:21;12.40;31.90
1381;DHT22;684;48.342;10.096;2023-10-19T07:40:49;12.40;32.20
1381;DHT22;684;48.342;10.096;2023-10-19T07:43:19;12.30;32.50
1381;DHT22;684;48.342;10.096;2023-10-19T07:45:47;12.30;32.50
1381;DHT22;684;48.342;10.096;2023-10-19T07:48:14;12.30;32.40
1381;DHT22;684;48.342;10.096;2023-10-19T07:50:42;12.30;32.50
1381;DHT22;684;48.342;10.096;2023-10-19T07:53:10;12.30;32.50
1381;DHT22;684;48.342;10.096;2023-10-19T07:55:37;12.40;32.30
1381;DHT22;684;48.342;10.096;2023-10-19T07:58:04;12.40;32.00
1381;DHT22;684;48.342;10.096;2023-10-19T08:00:33;12.50;32.20
1381;DHT22;684;48.342;10.096;2023-10-19T08:03:00;12.50;32.10
1381;DHT22;684;48.342;10.096;2023-10-19T08:05:28;12.50;32.00
1381;DHT22;684;48.342;10.096;2023-10-19T08:07:55;12.50;32.10
1381;DHT22;684;48.342;10.096;2023-10-19T08:10:24;12.50;32.00
1381;DHT22;684;48.342;10.096;2023-10-19T08:12:52;12.50;32.10
1381;DHT22;684;48.342;10.096;2023-10-19T08:15:21;12.50;32.20
1381;DHT22;684;48.342;10.096;2023-10-19T08:17:50;12.50;32.10
1381;DHT22;684;48.342;10.096;2023-10-19T08:20:19;12.50;32.00
1381;DHT22;684;48.342;10.096;2023-10-19T08:22:50;12.50;31.90
1381;DHT22;684;48.342;10.096;2023-10-19T08:25:17;12.50;32.00
1381;DHT22;684;48.342;10.096;2023-10-19T08:27:45;12.50;32.10
1381;DHT22;684;48.342;10.096;2023-10-19T08:30:14;12.50;32.30
1381;DHT22;684;48.342;10.096;2023-10-19T08:32:43;12.50;32.20
1381;DHT22;684;48.342;10.096;2023-10-19T08:35:15;12.60;32.00
1381;DHT22;684;48.342;10.096;2023-10-19T08:37:43;12.60;32.40
1381;DHT22;684;48.342;10.096;2023-10-19T08:40:12;12.60;32.50
1381;DHT22;684;48.342;10.096;2023-10-19T08:42:40;12.70;33.00
1381;DHT22;684;48.342;10.096;2023-10-19T08:45:08;12.70;32.90
1381;DHT22;684;48.342;10.096;2023-10-19T08:47:36;12.70;33.30
1381;DHT22;684;48.342;10.096;2023-10-19T08:50:03;12.70;33.30
1381;DHT22;684;48.342;10.096;2023-10-19T08:52:33;12.70;33.60
1381;DHT22;684;48.342;10.096;2023-10-19T08:55:00;12.80;33.50
1381;DHT22;684;48.342;10.096;2023-10-19T08:57:27;12.90;33.50
1381;DHT22;684;48.342;10.096;2023-10-19T08:59:54;13.00;33.30
1381;DHT22;684;48.342;10.096;2023-10-19T09:02:24;13.10;33.40
1381;DHT22;684;48.342;10.096;2023-10-19T09:04:52;13.30;33.10
1381;DHT22;684;48.342;10.096;2023-10-19T09:07:19;13.40;32.70
1381;DHT22;684;48.342;10.096;2023-10-19T09:09:47;13.50;32.40
1381;DHT22;684;48.342;10.096;2023-10-19T09:12:14;13.60;32.20
1381;DHT22;684;48.342;10.096;2023-10-19T09:14:41;13.60;32.20
1381;DHT22;684;48.342;10.096;2023-10-19T09:17:11;13.70;31.90
1381;DHT22;684;48.342;10.096;2023-10-19T09:19:40;13.70;31.90
1381;DHT22;684;48.342;10.096;2023-10-19T09:22:09;13.70;31.90
1381;DHT22;684;48.342;10.096;2023-10-19T09:24:44;13.80;31.80
1381;DHT22;684;48.342;10.096;2023-10-19T09:27:13;13.80;32.10
1381;DHT22;684;48.342;10.096;2023-10-19T09:29:43;13.70;32.30
1381;DHT22;684;48.342;10.096;2023-10-19T09:32:11;13.70;32.60
1381;DHT22;684;48.342;10.096;2023-10-19T09:34:39;13.70;32.90
1381;DHT22;684;48.342;10.096;2023-10-19T09:37:09;13.70;33.60
1381;DHT22;684;48.342;10.096;2023-10-19T09:39:36;13.70;33.30
1381;DHT22;684;48.342;10.096;2023-10-19T09:42:07;13.70;33.20
1381;DHT22;684;48.342;10.096;2023-10-19T09:44:41;13.70;33.20
1381;DHT22;684;48.342;10.096;2023-10-19T09:47:10;13.70;33.20
1381;DHT22;684;48.342;10.096;2023-10-19T09:49:39;13.70;33.20
1381;DHT22;684;48.342;10.096;2023-10-19T09:52:09;13.70;33.00
1381;DHT22;684;48.342;10.096;2023-10-19T09:54:48;13.80;33.40
1381;DHT22;684;48.342;10.096;2023-10-19T09:57:21;13.80;33.80
1381;DHT22;684;48.342;10.096;2023-10-19T09:59:56;13.80;34.00
1381;DHT22;684;48.342;10.096;2023-10-19T10:02:24;13.80;34.50
1381;DHT22;684;48.342;10.096;2023-10-19T10:04:53;13.80;34.50
1381;DHT22;684;48.342;10.096;2023-10-19T10:07:23;13.70;34.90
1381;DHT22;684;48.342;10.096;2023-10-19T10:09:51;13.80;34.70
1381;DHT22;684;48.342;10.096;2023-10-19T10:12:19;13.80;34.90
1381;DHT22;684;48.342;10.096;2023-10-19T10:15:00;13.90;34.70
1381;DHT22;684;48.342;10.096;2023-10-19T10:17:29;14.00;34.80
1381;DHT22;684;48.342;10.096;2023-10-19T10:20:30;14.10;34.40
1381;DHT22;684;48.342;10.096;2023-10-19T10:23:19;14.20;34.40
1381;DHT22;684;48.342;10.096;2023-10-19T10:25:50;14.20;33.80
1381;DHT22;684;48.342;10.096;2023-10-19T10:28:19;14.30;33.50
1381;DHT22;684;48.342;10.096;2023-10-19T10:31:10;14.40;33.40
1381;DHT22;684;48.342;10.096;2023-10-19T10:33:40;14.30;33.70
1381;DHT22;684;48.342;10.096;2023-10-19T10:36:07;14.40;33.10
1381;DHT22;684;48.342;10.096;2023-10-19T10:38:34;14.40;32.90
1381;DHT22;684;48.342;10.096;2023-10-19T10:41:02;14.50;33.00
1381;DHT22;684;48.342;10.096;2023-10-19T10:43:29;14.50;33.60
1381;DHT22;684;48.342;10.096;2023-10-19T10:46:04;14.60;33.00
1381;DHT22;684;48.342;10.096;2023-10-19T10:48:32;14.70;32.80
1381;DHT22;684;48.342;10.096;2023-10-19T10:51:01;14.70;32.70
1381;DHT22;684;48.342;10.096;2023-10-19T10:53:28;14.80;32.50
1381;DHT22;684;48.342;10.096;2023-10-19T10:56:00;14.90;32.10
1381;DHT22;684;48.342;10.096;2023-10-19T10:58:26;15.00;32.10
1381;DHT22;684;48.342;10.096;2023-10-19T11:00:54;15.10;32.40
1381;DHT22;684;48.342;10.096;2023-10-19T11:03:22;15.30;32.10
1381;DHT22;684;48.342;10.096;2023-10-19T11:05:51;15.50;32.40
1381;DHT22;684;48.342;10.096;2023-10-19T11:08:18;15.60;32.30
1381;DHT22;684;48.342;10.096;2023-10-19T11:10:46;15.70;31.60
1381;DHT22;684;48.342;10.096;2023-10-19T11:13:14;15.80;31.40
1381;DHT22;684;48.342;10.096;2023-10-19T11:15:48;15.80;30.70
1381;DHT22;684;48.342;10.096;2023-10-19T11:18:28;15.90;30.70
1381;DHT22;684;48.342;10.096;2023-10-19T11:20:57;15.90;31.00
1381;DHT22;684;48.342;10.096;2023-10-19T11:23:38;16.00;30.50
1381;DHT22;684;48.342;10.096;2023-10-19T11:26:05;16.00;30.70
1381;DHT22;684;48.342;10.096;2023-10-19T11:28:32;16.00;30.90
1381;DHT22;684;48.342;10.096;2023-10-19T11:31:13;16.10;30.90
1381;DHT22;684;48.342;10.096;2023-10-19T11:33:41;16.10;31.00
1381;DHT22;684;48.342;10.096;2023-10-19T11:36:10;16.00;30.60
1381;DHT22;684;48.342;10.096;2023-10-19T11:38:42;16.00;30.00
1381;DHT22;684;48.342;10.096;2023-10-19T11:41:09;16.00;30.30
1381;DHT22;684;48.342;10.096;2023-10-19T11:43:36;16.00;30.40
1381;DHT22;684;48.342;10.096;2023-10-19T11:46:03;16.00;30.50
1381;DHT22;684;48.342;10.096;2023-10-19T11:48:34;16.20;30.50
1381;DHT22;684;48.342;10.096;2023-10-19T11:51:02;16.20;29.90
1381;DHT22;684;48.342;10.096;2023-10-19T11:53:32;16.30;29.40
1381;DHT22;684;48.342;10.096;2023-10-19T11:56:01;16.40;29.40
1381;DHT22;684;48.342;10.096;2023-10-19T11:58:29;16.40;29.20
1381;DHT22;684;48.342;10.096;2023-10-19T12:00:58;16.50;29.30
1381;DHT22;684;48.342;10.096;2023-10-19T12:03:25;16.60;29.60
1381;DHT22;684;48.342;10.096;2023-10-19T12:05:52;16.70;29.20
1381;DHT22;684;48.342;10.096;2023-10-19T12:08:20;16.90;28.90
1381;DHT22;684;48.342;10.096;2023-10-19T12:10:49;17.00;28.80
1381;DHT22;684;48.342;10.096;2023-10-19T12:13:16;17.20;28.60
1381;DHT22;684;48.342;10.096;2023-10-19T12:15:43;17.40;28.60
1381;DHT22;684;48.342;10.096;2023-10-19T12:18:17;17.60;28.60
1381;DHT22;684;48.342;10.096;2023-10-19T12:20:44;18.10;28.70
1381;DHT22;684;48.342;10.096;2023-10-19T12:23:11;18.80;28.80
1381;DHT22;684;48.342;10.096;2023-10-19T12:25:38;19.00;26.60
1381;DHT22;684;48.342;10.096;2023-10-19T12:28:09;19.10;24.80
1381;DHT22;684;48.342;10.096;2023-10-19T12:30:42;19.30;24.60
1381;DHT22;684;48.342;10.096;2023-10-19T12:33:10;19.50;24.40
1381;DHT22;684;48.342;10.096;2023-10-19T12:35:40;19.60;23.00
1381;DHT22;684;48.342;10.096;2023-10-19T12:38:17;19.50;22.90
1381;DHT22;684;48.342;10.096;2023-10-19T12:40:46;19.50;23.00
1381;DHT22;684;48.342;10.096;2023-10-19T12:43:14;19.50;23.30
1381;DHT22;684;48.342;10.096;2023-10-19T12:45:44;19.50;22.30
1381;DHT22;684;48.342;10.096;2023-10-19T12:48:16;19.40;22.70
1381;DHT22;684;48.342;10.096;2023-10-19T12:50:43;19.40;22.40
1381;DHT22;684;48.342;10.096;2023-10-19T12:53:10;19.40;22.90
1381;DHT22;684;48.342;10.096;2023-10-19T12:55:37;19.40;22.70
1381;DHT22;684;48.342;10.096;2023-10-19T12:58:04;19.40;22.20
1381;DHT22;684;48.342;10.096;2023-10-19T13:00:36;19.40;22.10
1381;DHT22;684;48.342;10.096;2023-10-19T13:03:07;19.20;22.20
1381;DHT22;684;48.342;10.096;2023-10-19T13:05:35;19.20;22.40
1381;DHT22;684;48.342;10.096;2023-10-19T13:08:04;19.10;22.60
1381;DHT22;684;48.342;10.096;2023-10-19T13:10:33;19.00;22.80
1381;DHT22;684;48.342;10.096;2023-10-19T13:13:00;18.80;23.10
1381;DHT22;684;48.342;10.096;2023-10-19T13:15:29;18.70;23.80
1381;DHT22;684;48.342;10.096;2023-10-19T13:17:58;18.60;24.40
1381;DHT22;684;48.342;10.096;2023-10-19T13:20:25;18.40;24.90
1381;DHT22;684;48.342;10.096;2023-10-19T13:22:53;18.30;25.30
1381;DHT22;684;48.342;10.096;2023-10-19T13:25:21;18.20;25.50
1381;DHT22;684;48.342;10.096;2023-10-19T13:28:05;18.10;25.90
1381;DHT22;684;48.342;10.096;2023-10-19T13:30:36;18.00;26.20
1381;DHT22;684;48.342;10.096;2023-10-19T13:33:05;17.90;26.40
1381;DHT22;684;48.342;10.096;2023-10-19T13:35:32;17.90;26.80
1381;DHT22;684;48.342;10.096;2023-10-19T13:38:00;17.80;27.00
1381;DHT22;684;48.342;10.096;2023-10-19T13:40:27;17.70;28.20
1381;DHT22;684;48.342;10.096;2023-10-19T13:42:55;17.60;28.10
1381;DHT22;684;48.342;10.096;2023-10-19T13:45:22;17.50;28.20
1381;DHT22;684;48.342;10.096;2023-10-19T13:47:49;17.40;28.40
1381;DHT22;684;48.342;10.096;2023-10-19T13:50:21;17.40;28.70
1381;DHT22;684;48.342;10.096;2023-10-19T13:52:50;17.40;29.10
1381;DHT22;684;48.342;10.096;2023-10-19T13:55:17;17.30;29.30
1381;DHT22;684;48.342;10.096;2023-10-19T13:57:46;17.30;29.50
1381;DHT22;684;48.342;10.096;2023-10-19T14:00:14;17.30;29.80
1381;DHT22;684;48.342;10.096;2023-10-19T14:02:45;17.20;30.00
1381;DHT22;684;48.342;10.096;2023-10-19T14:05:13;17.20;30.30
1381;DHT22;684;48.342;10.096;2023-10-19T14:07:41;17.10;30.50
1381;DHT22;684;48.342;10.096;2023-10-19T14:10:09;17.10;30.70
1381;DHT22;684;48.342;10.096;2023-10-19T14:12:38;17.10;30.80
1381;DHT22;684;48.342;10.096;2023-10-19T14:15:11;17.10;31.10
1381;DHT22;684;48.342;10.096;2023-10-19T14:17:37;17.10;31.40
1381;DHT22;684;48.342;10.096;2023-10-19T14:20:05;17.20;31.20
1381;DHT22;684;48.342;10.096;2023-10-19T14:22:38;17.30;31.20
1381;DHT22;684;48.342;10.096;2023-10-19T14:25:07;17.30;31.10
1381;DHT22;684;48.342;10.096;2023-10-19T14:27:38;17.40;31.60
1381;DHT22;684;48.342;10.096;2023-10-19T14:30:06;17.30;30.80
1381;DHT22;684;48.342;10.096;2023-10-19T14:32:33;17.30;30.90
1381;DHT22;684;48.342;10.096;2023-10-19T14:34:59;17.30;30.90
1381;DHT22;684;48.342;10.096;2023-10-19T14:37:26;17.20;30.90
1381;DHT22;684;48.342;10.096;2023-10-19T14:39:53;17.10;31.40
1381;DHT22;684;48.342;10.096;2023-10-19T14:42:21;17.10;31.30
1381;DHT22;684;48.342;10.096;2023-10-19T14:44:48;17.00;31.30
1381;DHT22;684;48.342;10.096;2023-10-19T14:47:14;17.00;31.40
1381;DHT22;684;48.342;10.096;2023-10-19T14:49:41;17.00;31.50
1381;DHT22;684;48.342;10.096;2023-10-19T14:52:08;17.00;31.50
1381;DHT22;684;48.342;10.096;2023-10-19T14:54:35;17.00;31.70
1381;DHT22;684;48.342;10.096;2023-10-19T14:57:02;16.90;31.60
1381;DHT22;684;48.342;10.096;2023-10-19T14:59:30;16.90;31.90
1381;DHT22;684;48.342;10.096;2023-10-19T15:01:59;16.90;31.90
1381;DHT22;684;48.342;10.096;2023-10-19T15:04:26;16.90;32.20
1381;DHT22;684;48.342;10.096;2023-10-19T15:06:52;16.80;32.30
1381;DHT22;684;48.342;10.096;2023-10-19T15:09:19;16.80;32.70
1381;DHT22;684;48.342;10.096;2023-10-19T15:11:50;16.80;32.70
1381;DHT22;684;48.342;10.096;2023-10-19T15:14:19;16.80;32.60
1381;DHT22;684;48.342;10.096;2023-10-19T15:16:47;16.80;32.70
1381;DHT22;684;48.342;10.096;2023-10-19T15:19:15;16.70;33.00
1381;DHT22;684;48.342;10.096;2023-10-19T15:21:44;16.70;33.20
1381;DHT22;684;48.342;10.096;2023-10-19T15:24:11;16.70;33.40
1381;DHT22;684;48.342;10.096;2023-10-19T15:26:38;16.60;33.50
1381;DHT22;684;48.342;10.096;2023-10-19T15:29:05;16.70;33.70
1381;DHT22;684;48.342;10.096;2023-10-19T15:31:32;16.70;33.80
1381;DHT22;684;48.342;10.096;2023-10-19T15:34:00;16.70;33.80
1381;DHT22;684;48.342;10.096;2023-10-19T15:36:27;16.70;33.70
1381;DHT22;684;48.342;10.096;2023-10-19T15:38:53;16.70;33.50
1381;DHT22;684;48.342;10.096;2023-10-19T15:41:20;16.60;33.80
1381;DHT22;684;48.342;10.096;2023-10-19T15:43:47;16.60;33.80
1381;DHT22;684;48.342;10.096;2023-10-19T15:46:13;16.50;34.00
1381;DHT22;684;48.342;10.096;2023-10-19T15:48:41;16.50;34.50
1381;DHT22;684;48.342;10.096;2023-10-19T15:51:09;16.40;34.90
1381;DHT22;684;48.342;10.096;2023-10-19T15:53:36;16.30;35.40
1381;DHT22;684;48.342;10.096;2023-10-19T15:56:03;16.20;35.70
1381;DHT22;684;48.342;10.096;2023-10-19T15:58:31;16.10;35.60
1381;DHT22;684;48.342;10.096;2023-10-19T16:00:57;16.10;35.90
1381;DHT22;684;48.342;10.096;2023-10-19T16:03:24;16.10;36.30
1381;DHT22;684;48.342;10.096;2023-10-19T16:05:51;16.00;36.50
1381;DHT22;684;48.342;10.096;2023-10-19T16:08:19;15.90;36.60
1381;DHT22;684;48.342;10.096;2023-10-19T16:10:46;15.90;36.80
1381;DHT22;684;48.342;10.096;2023-10-19T16:13:15;15.90;36.70
1381;DHT22;684;48.342;10.096;2023-10-19T16:15:42;15.80;36.50